createdAt,value
2023-05-19T00:01:00.482Z,2.20
2023-05-19T00:03:27.329Z,1.53
2023-05-19T00:05:54.081Z,1.52
2023-05-19T00:08:23.452Z,2.15
2023-05-19T00:10:50.054Z,2.65
2023-05-19T00:13:16.745Z,1.77
2023-05-19T00:20:14.183Z,1.63
2023-05-19T00:22:40.690Z,1.67
2023-05-19T00:25:07.437Z,1.70
2023-05-19T00:27:34.468Z,2.10
2023-05-19T00:30:00.875Z,1.67
2023-05-19T00:32:27.310Z,1.92
2023-05-19T00:34:54.023Z,1.90
2023-05-19T00:37:20.555Z,2.17
2023-05-19T00:39:47.026Z,1.67
2023-05-19T00:42:14.176Z,2.13
2023-05-19T00:44:41.719Z,1.73
2023-05-19T00:47:08.786Z,2.20
2023-05-19T00:49:36.027Z,1.58
2023-05-19T00:52:02.841Z,1.58
2023-05-19T00:54:29.730Z,2.13
2023-05-19T00:56:58.285Z,1.67
2023-05-19T00:59:25.006Z,2.08
2023-05-19T01:01:51.575Z,1.40
2023-05-19T01:04:21.832Z,1.95
2023-05-19T01:06:54.970Z,1.87
2023-05-19T01:09:22.671Z,1.80
2023-05-19T01:11:50.370Z,1.75
2023-05-19T01:14:18.128Z,1.90
2023-05-19T01:16:54.495Z,2.30
2023-05-19T01:19:36.878Z,1.87
2023-05-19T01:22:37.038Z,2.05
2023-05-19T01:25:30.803Z,2.03
2023-05-19T01:28:30.364Z,1.60
2023-05-19T01:30:59.643Z,1.80
2023-05-19T01:33:28.498Z,1.47
2023-05-19T01:35:56.211Z,2.35
2023-05-19T01:38:24.815Z,2.20
2023-05-19T01:40:54.180Z,2.00
2023-05-19T01:43:23.946Z,2.03
2023-05-19T01:45:51.353Z,2.07
2023-05-19T01:48:18.671Z,1.55
2023-05-19T01:50:45.937Z,2.83
2023-05-19T01:53:12.577Z,1.75
2023-05-19T01:55:48.123Z,2.42
2023-05-19T01:58:31.382Z,1.97
2023-05-19T02:01:00.793Z,1.55
2023-05-19T02:04:01.331Z,1.95
2023-05-19T02:06:41.622Z,1.75
2023-05-19T02:09:18.573Z,1.98
2023-05-19T02:11:55.929Z,2.17
2023-05-19T02:14:32.870Z,1.75
2023-05-19T02:17:00.676Z,2.45
2023-05-19T02:19:32.365Z,2.17
2023-05-19T02:21:59.210Z,2.08
2023-05-19T02:24:26.017Z,1.53
2023-05-19T02:26:53.823Z,2.05
2023-05-19T02:29:21.076Z,2.30
2023-05-19T02:31:47.964Z,2.00
2023-05-19T02:34:14.865Z,2.13
2023-05-19T02:36:45.324Z,2.17
2023-05-19T02:39:12.240Z,2.05
2023-05-19T02:41:39.352Z,2.13
2023-05-19T02:44:05.827Z,2.22
2023-05-19T02:46:32.557Z,2.80
2023-05-19T02:48:59.530Z,2.83
2023-05-19T02:51:25.965Z,2.40
2023-05-19T02:53:52.463Z,1.98
2023-05-19T02:56:18.890Z,2.00
2023-05-19T02:58:45.351Z,2.50
2023-05-19T03:01:12.114Z,2.17
2023-05-19T03:03:38.617Z,2.45
2023-05-19T03:06:08.656Z,2.38
2023-05-19T03:08:36.118Z,2.30
2023-05-19T03:11:03.551Z,2.78
2023-05-19T03:13:30.019Z,2.17
2023-05-19T03:15:58.706Z,2.60
2023-05-19T03:18:26.541Z,2.40
2023-05-19T03:20:54.050Z,3.10
2023-05-19T03:23:21.652Z,2.38
2023-05-19T03:25:48.312Z,2.37
2023-05-19T03:28:14.793Z,2.05
2023-05-19T03:30:41.271Z,2.95
2023-05-19T03:33:07.881Z,2.42
2023-05-19T03:35:34.396Z,2.72
2023-05-19T03:38:00.903Z,2.20
2023-05-19T03:40:27.810Z,2.60
2023-05-19T03:42:57.178Z,2.53
2023-05-19T03:45:23.745Z,2.53
2023-05-19T03:47:50.199Z,2.78
2023-05-19T03:50:16.693Z,2.90
2023-05-19T03:52:45.464Z,2.20
2023-05-19T03:55:14.744Z,2.53
2023-05-19T03:57:41.546Z,2.30
2023-05-19T04:00:09.130Z,2.50
2023-05-19T04:02:35.726Z,2.67
2023-05-19T04:05:04.855Z,2.75
2023-05-19T04:07:31.719Z,2.20
2023-05-19T04:09:58.256Z,2.60
2023-05-19T04:12:24.705Z,2.60
2023-05-19T04:14:51.173Z,2.30
2023-05-19T04:17:17.656Z,2.42
2023-05-19T04:19:44.040Z,1.90
2023-05-19T04:22:10.490Z,2.92
2023-05-19T04:24:36.956Z,2.35
2023-05-19T04:27:04.774Z,2.10
2023-05-19T04:29:32.594Z,2.00
2023-05-19T04:31:59.044Z,2.88
2023-05-19T04:34:25.583Z,2.20
2023-05-19T04:36:53.446Z,2.85
2023-05-19T04:39:21.421Z,2.37
2023-05-19T04:41:48.274Z,1.90
2023-05-19T04:44:18.189Z,2.10
2023-05-19T04:46:45.306Z,2.90
2023-05-19T04:49:14.850Z,2.13
2023-05-19T04:51:42.334Z,2.67
2023-05-19T04:54:09.971Z,2.47
2023-05-19T04:56:36.717Z,2.47
2023-05-19T04:59:03.250Z,2.80
2023-05-19T05:01:31.437Z,2.45
2023-05-19T05:03:59.124Z,2.43
2023-05-19T05:06:26.446Z,2.47
2023-05-19T05:08:53.060Z,2.58
2023-05-19T05:11:19.804Z,2.15
2023-05-19T05:13:46.515Z,2.75
2023-05-19T05:16:13.931Z,2.50
2023-05-19T05:18:43.441Z,2.72
2023-05-19T05:21:11.470Z,3.80
2023-05-19T05:23:38.203Z,2.95
2023-05-19T05:26:11.067Z,3.20
2023-05-19T05:28:37.518Z,2.70
2023-05-19T05:31:04.008Z,2.97
2023-05-19T05:33:30.584Z,2.88
2023-05-19T05:35:57.055Z,3.13
2023-05-19T05:38:24.105Z,2.75
2023-05-19T05:40:50.636Z,3.17
2023-05-19T05:43:17.085Z,2.80
2023-05-19T05:45:43.524Z,3.55
2023-05-19T05:48:10.435Z,3.30
2023-05-19T05:50:37.288Z,2.70
2023-05-19T05:53:06.468Z,3.00
2023-05-19T05:55:33.510Z,3.42
2023-05-19T05:58:02.042Z,4.03
2023-05-19T06:00:28.873Z,3.13
2023-05-19T06:02:55.371Z,3.38
2023-05-19T06:05:22.062Z,3.10
2023-05-19T06:07:48.635Z,3.13
2023-05-19T06:10:15.049Z,3.55
2023-05-19T06:12:43.195Z,3.80
2023-05-19T06:15:10.484Z,3.92
2023-05-19T06:17:36.988Z,2.80
2023-05-19T06:20:05.890Z,3.45
2023-05-19T06:22:32.515Z,3.35
2023-05-19T06:24:59.034Z,3.60
2023-05-19T06:27:25.579Z,3.20
2023-05-19T06:29:52.544Z,3.60
2023-05-19T06:32:19.031Z,3.50
2023-05-19T06:34:45.645Z,3.50
2023-05-19T06:37:14.925Z,3.85
2023-05-19T06:39:41.314Z,3.17
2023-05-19T06:42:07.748Z,3.63
2023-05-19T06:44:34.174Z,3.80
2023-05-19T06:47:00.668Z,3.72
2023-05-19T06:49:29.353Z,2.95
2023-05-19T06:51:55.792Z,3.85
2023-05-19T06:54:22.218Z,3.20
2023-05-19T06:56:48.883Z,3.53
2023-05-19T06:59:16.169Z,4.15
2023-05-19T07:01:42.908Z,3.50
2023-05-19T07:04:09.582Z,3.25
2023-05-19T07:06:36.369Z,3.43
2023-05-19T07:09:05.207Z,3.10
2023-05-19T07:11:32.101Z,2.97
2023-05-19T07:13:58.506Z,3.08
2023-05-19T07:16:25.235Z,3.53
2023-05-19T07:18:51.847Z,2.97
2023-05-19T07:21:18.405Z,2.95
2023-05-19T07:23:44.948Z,3.17
2023-05-19T07:26:11.671Z,3.17
2023-05-19T07:28:40.793Z,2.70
2023-05-19T07:31:08.533Z,3.13
2023-05-19T07:33:35.005Z,2.67
2023-05-19T07:36:01.446Z,2.53
2023-05-19T07:38:28.813Z,2.80
2023-05-19T07:40:55.242Z,3.30
2023-05-19T07:43:21.808Z,2.87
2023-05-19T07:45:48.589Z,2.13
2023-05-19T07:48:15.204Z,2.00
2023-05-19T07:50:41.986Z,2.08
2023-05-19T07:53:08.398Z,1.75
2023-05-19T07:55:34.986Z,2.47
2023-05-19T07:58:01.671Z,2.00
2023-05-19T08:00:28.357Z,2.38
2023-05-19T08:02:56.935Z,1.35
2023-05-19T08:05:23.765Z,0.88
2023-05-19T08:07:50.447Z,1.50
2023-05-19T08:10:17.006Z,1.02
2023-05-19T08:12:44.145Z,1.90
2023-05-19T08:15:11.794Z,0.80
2023-05-19T08:17:38.352Z,0.88
2023-05-19T08:20:08.641Z,0.70
2023-05-19T08:22:35.171Z,0.85
2023-05-19T08:25:01.626Z,0.82
2023-05-19T08:27:28.073Z,0.57
2023-05-19T08:29:55.321Z,1.00
2023-05-19T08:32:22.120Z,0.73
2023-05-19T08:34:48.835Z,0.85
2023-05-19T08:37:15.536Z,0.90
2023-05-19T08:39:42.275Z,1.17
2023-05-19T08:42:10.017Z,0.77
2023-05-19T08:44:37.864Z,0.80
2023-05-19T08:47:12.815Z,1.02
2023-05-19T08:49:51.961Z,1.70
2023-05-19T08:52:30.367Z,0.80
2023-05-19T08:55:13.070Z,0.45
2023-05-19T08:57:40.741Z,0.67
2023-05-19T09:00:14.249Z,1.55
2023-05-19T09:02:50.584Z,0.70
2023-05-19T09:05:28.353Z,0.95
2023-05-19T09:07:55.056Z,0.75
2023-05-19T09:10:21.887Z,1.07
2023-05-19T09:12:49.763Z,0.80
2023-05-19T09:15:19.007Z,0.98
2023-05-19T09:17:47.957Z,0.88
2023-05-19T09:20:16.842Z,0.93
2023-05-19T09:22:47.674Z,0.97
2023-05-19T09:25:22.782Z,1.00
2023-05-19T09:27:50.490Z,1.02
2023-05-19T09:30:17.646Z,1.23
2023-05-19T09:32:44.768Z,1.98
2023-05-19T09:35:13.070Z,0.97
2023-05-19T09:37:41.172Z,0.98
2023-05-19T09:40:13.818Z,1.33
2023-05-19T09:42:41.877Z,1.17
2023-05-19T09:45:09.367Z,1.25
2023-05-19T09:47:40.241Z,0.83
2023-05-19T09:50:11.937Z,0.55
2023-05-19T09:52:39.805Z,1.55
2023-05-19T09:55:09.685Z,0.70
2023-05-19T09:57:37.656Z,0.95
2023-05-19T10:00:12.402Z,0.83
2023-05-19T10:02:42.987Z,0.98
2023-05-19T10:05:20.475Z,1.13
2023-05-19T10:07:49.855Z,0.82
2023-05-19T10:10:16.344Z,1.10
2023-05-19T10:12:43.446Z,0.87
2023-05-19T10:15:11.769Z,1.08
2023-05-19T10:17:40.542Z,0.93
2023-05-19T10:20:09.357Z,1.08
2023-05-19T10:22:36.194Z,1.38
2023-05-19T10:25:02.698Z,1.27
2023-05-19T10:27:30.577Z,1.40
2023-05-19T10:30:00.753Z,1.15
2023-05-19T10:32:31.262Z,1.25
2023-05-19T10:35:13.715Z,1.30
2023-05-19T10:37:45.077Z,1.00
2023-05-19T10:40:33.639Z,0.88
2023-05-19T10:43:25.208Z,1.23
2023-05-19T10:45:53.675Z,0.95
2023-05-19T10:48:24.717Z,1.00
2023-05-19T10:50:55.271Z,1.33
2023-05-19T10:53:22.853Z,1.50
2023-05-19T10:55:59.292Z,1.23
2023-05-19T10:58:44.203Z,0.93
2023-05-19T11:01:16.556Z,1.20
2023-05-19T11:03:53.794Z,1.60
2023-05-19T11:06:34.170Z,1.27
2023-05-19T11:09:13.777Z,1.20
2023-05-19T11:11:48.525Z,1.10
2023-05-19T11:14:17.824Z,1.65
2023-05-19T11:16:47.522Z,1.17
2023-05-19T11:19:38.004Z,1.45
2023-05-19T11:22:09.992Z,1.40
2023-05-19T11:24:47.940Z,1.25
2023-05-19T11:27:27.345Z,1.20
2023-05-19T11:30:02.381Z,0.80
2023-05-19T11:32:30.818Z,1.10
2023-05-19T11:34:58.319Z,1.25
2023-05-19T11:37:25.006Z,1.05
2023-05-19T11:39:52.847Z,1.20
2023-05-19T11:42:19.855Z,1.00
2023-05-19T11:44:46.852Z,1.10
2023-05-19T11:47:14.670Z,0.90
2023-05-19T11:49:45.812Z,0.85
2023-05-19T11:52:12.641Z,0.85
2023-05-19T11:54:42.032Z,0.70
2023-05-19T11:57:10.693Z,0.60
2023-05-19T11:59:39.152Z,1.27
2023-05-19T12:02:20.153Z,1.15
2023-05-19T12:04:49.940Z,1.05
2023-05-19T12:07:18.539Z,1.10
2023-05-19T12:09:46.721Z,0.60
2023-05-19T12:12:17.118Z,1.13
2023-05-19T12:14:44.756Z,1.10
2023-05-19T12:17:19.687Z,1.45
2023-05-19T12:19:48.337Z,1.83
2023-05-19T12:22:16.616Z,1.77
2023-05-19T12:24:44.580Z,1.90
2023-05-19T12:27:13.591Z,1.90
2023-05-19T12:29:40.563Z,1.63
2023-05-19T12:32:08.277Z,1.50
2023-05-19T12:34:38.892Z,1.40
2023-05-19T12:37:06.338Z,1.40
2023-05-19T12:39:33.720Z,2.55
2023-05-19T12:42:18.029Z,1.70
2023-05-19T12:44:46.968Z,1.77
2023-05-19T12:47:17.834Z,1.67
2023-05-19T12:49:59.948Z,1.30
2023-05-19T12:52:28.948Z,1.27
2023-05-19T12:55:07.349Z,1.20
2023-05-19T12:57:39.125Z,1.13
2023-05-19T13:00:09.859Z,1.25
2023-05-19T13:02:55.767Z,1.20
2023-05-19T13:05:22.818Z,2.38
2023-05-19T13:07:59.144Z,1.60
2023-05-19T13:10:27.665Z,1.00
2023-05-19T13:12:59.015Z,1.45
2023-05-19T13:15:26.866Z,0.98
2023-05-19T13:17:54.409Z,0.93
2023-05-19T13:20:21.967Z,1.27
2023-05-19T13:22:49.310Z,1.30
2023-05-19T13:25:16.681Z,1.08
2023-05-19T13:27:45.844Z,1.20
2023-05-19T13:30:12.731Z,1.50
2023-05-19T13:32:39.229Z,1.25
2023-05-19T13:35:06.598Z,1.70
2023-05-19T13:37:33.502Z,1.20
2023-05-19T13:40:00.483Z,1.10
2023-05-19T13:42:27.175Z,0.77
2023-05-19T13:44:56.723Z,1.30
2023-05-19T13:47:24.354Z,1.50
2023-05-19T13:49:51.606Z,1.55
2023-05-19T13:52:18.741Z,1.40
2023-05-19T13:54:45.197Z,1.33
2023-05-19T13:57:11.942Z,1.10
2023-05-19T13:59:48.913Z,1.30
2023-05-19T14:02:19.731Z,1.27
2023-05-19T14:04:46.858Z,1.17
2023-05-19T14:07:13.488Z,1.30
2023-05-19T14:09:39.901Z,1.50
2023-05-19T14:12:07.404Z,1.67
2023-05-19T14:14:33.876Z,1.05
2023-05-19T14:17:00.447Z,1.20
2023-05-19T14:19:30.148Z,1.30
2023-05-19T14:21:57.449Z,1.50
2023-05-19T14:24:24.071Z,1.00
2023-05-19T14:26:50.700Z,0.80
2023-05-19T14:29:17.282Z,1.10
2023-05-19T14:31:43.774Z,1.50
2023-05-19T14:34:10.538Z,1.00
2023-05-19T14:36:36.961Z,1.17
2023-05-19T14:39:03.526Z,0.90
2023-05-19T14:41:29.980Z,0.95
2023-05-19T14:43:56.558Z,0.70
2023-05-19T14:46:23.186Z,1.25
2023-05-19T14:48:49.864Z,1.00
2023-05-19T14:51:16.285Z,1.30
2023-05-19T14:53:42.681Z,0.95
2023-05-19T14:56:09.136Z,0.90
2023-05-19T14:58:35.554Z,1.05
2023-05-19T15:01:01.971Z,1.00
2023-05-19T15:03:28.468Z,1.13
2023-05-19T15:05:54.958Z,0.80
2023-05-19T15:08:21.378Z,0.90
2023-05-19T15:10:51.246Z,0.90
2023-05-19T15:13:18.922Z,1.17
2023-05-19T15:15:45.939Z,1.08
2023-05-19T15:18:13.309Z,0.90
2023-05-19T15:20:39.918Z,0.98
2023-05-19T15:23:06.389Z,1.00
2023-05-19T15:25:32.960Z,0.77
2023-05-19T15:27:59.653Z,1.02
2023-05-19T15:30:26.048Z,1.25
2023-05-19T15:32:52.660Z,0.85
2023-05-19T15:35:19.067Z,1.75
2023-05-19T15:37:45.636Z,0.70
2023-05-19T15:40:12.517Z,0.98
2023-05-19T15:42:38.894Z,0.90
2023-05-19T15:45:07.875Z,0.75
2023-05-19T15:47:34.561Z,1.00
2023-05-19T15:50:01.032Z,0.80
2023-05-19T15:52:27.672Z,0.63
2023-05-19T15:54:55.172Z,0.80
2023-05-19T15:57:21.832Z,1.00
2023-05-19T15:59:48.225Z,0.85
2023-05-19T16:02:14.688Z,0.80
2023-05-19T16:04:41.153Z,0.80
2023-05-19T16:07:07.647Z,1.10
2023-05-19T16:09:34.099Z,0.85
2023-05-19T16:12:00.707Z,0.70
2023-05-19T16:14:30.918Z,0.90
2023-05-19T16:16:57.380Z,1.40
2023-05-19T16:19:24.016Z,1.17
2023-05-19T16:21:50.585Z,1.27
2023-05-19T16:24:17.030Z,1.02
2023-05-19T16:26:43.446Z,1.13
2023-05-19T16:29:09.852Z,0.82
2023-05-19T16:31:36.333Z,0.98
2023-05-19T16:34:02.955Z,1.17
2023-05-19T16:36:29.612Z,0.90
2023-05-19T16:38:56.087Z,1.27
2023-05-19T16:41:22.633Z,1.30
2023-05-19T16:43:49.063Z,0.85
2023-05-19T16:46:15.519Z,1.38
2023-05-19T16:48:42.022Z,1.08
2023-05-19T16:51:08.467Z,1.10
2023-05-19T16:53:34.934Z,2.35
2023-05-19T16:56:01.420Z,1.00
2023-05-19T16:58:28.901Z,1.23
2023-05-19T17:00:57.716Z,1.85
2023-05-19T17:03:24.515Z,1.00
2023-05-19T17:05:51.240Z,1.10
2023-05-19T17:08:17.862Z,1.00
2023-05-19T17:10:44.854Z,1.08
2023-05-19T17:13:11.751Z,1.30
2023-05-19T17:15:38.235Z,1.00
2023-05-19T17:18:05.759Z,1.40
2023-05-19T17:20:32.446Z,1.92
2023-05-19T17:22:59.036Z,0.88
2023-05-19T17:25:25.822Z,0.90
2023-05-19T17:27:52.375Z,0.90
2023-05-19T17:30:18.851Z,0.98
2023-05-19T17:32:45.655Z,0.90
2023-05-19T17:35:12.172Z,1.27
2023-05-19T17:37:38.568Z,1.00
2023-05-19T17:40:05.572Z,0.87
2023-05-19T17:42:32.154Z,1.23
2023-05-19T17:44:58.652Z,0.90
2023-05-19T17:47:25.428Z,1.52
2023-05-19T17:49:53.055Z,0.80
2023-05-19T17:52:20.525Z,0.93
2023-05-19T17:54:47.778Z,0.70
2023-05-19T17:57:16.938Z,0.80
2023-05-19T17:59:43.706Z,0.93
2023-05-19T18:02:11.876Z,0.90
2023-05-19T18:04:38.594Z,1.40
2023-05-19T18:07:06.864Z,1.50
2023-05-19T18:09:40.581Z,0.80
2023-05-19T18:12:07.171Z,0.75
2023-05-19T18:14:33.756Z,0.98
2023-05-19T18:17:00.508Z,0.80
2023-05-19T18:19:27.023Z,0.93
2023-05-19T18:21:53.556Z,1.30
2023-05-19T18:24:19.964Z,0.95
2023-05-19T18:26:46.824Z,1.00
2023-05-19T18:29:14.568Z,1.00
2023-05-19T18:31:41.625Z,0.80
2023-05-19T18:34:11.518Z,1.10
2023-05-19T18:36:37.971Z,0.90
2023-05-19T18:39:07.329Z,1.02
2023-05-19T18:41:33.857Z,0.73
2023-05-19T18:44:00.356Z,1.10
2023-05-19T18:46:26.847Z,1.45
2023-05-19T18:48:53.321Z,1.00
2023-05-19T18:51:21.313Z,1.23
2023-05-19T18:53:49.992Z,1.43
2023-05-19T18:56:23.537Z,1.00
2023-05-19T18:58:50.181Z,1.02
2023-05-19T19:01:16.730Z,0.80
2023-05-19T19:03:43.692Z,1.38
2023-05-19T19:06:10.257Z,0.90
2023-05-19T19:08:36.702Z,0.98
2023-05-19T19:11:03.782Z,0.90
2023-05-19T19:13:30.190Z,0.82
2023-05-19T19:15:56.588Z,1.27
2023-05-19T19:18:23.025Z,0.90
2023-05-19T19:20:49.462Z,1.00
2023-05-19T19:23:16.107Z,1.10
2023-05-19T19:25:42.504Z,1.27
2023-05-19T19:28:09.253Z,1.00
2023-05-19T19:30:35.958Z,1.00
2023-05-19T19:33:03.443Z,1.13
2023-05-19T19:35:31.141Z,1.10
2023-05-19T19:37:58.677Z,1.10
2023-05-19T19:40:25.360Z,0.73
2023-05-19T19:42:51.763Z,0.80
2023-05-19T19:45:18.561Z,1.27
2023-05-19T19:47:45.117Z,0.95
2023-05-19T19:50:11.791Z,1.00
2023-05-19T19:52:38.475Z,1.10
2023-05-19T19:55:05.517Z,0.80
2023-05-19T19:57:34.071Z,0.95
2023-05-19T20:00:07.691Z,1.00
2023-05-19T20:02:36.007Z,0.60
2023-05-19T20:05:02.572Z,0.70
2023-05-19T20:07:29.352Z,0.83
2023-05-19T20:09:58.408Z,0.90
2023-05-19T20:12:25.310Z,1.00
2023-05-19T20:14:55.015Z,0.73
2023-05-19T20:17:21.538Z,1.30
2023-05-19T20:19:48.487Z,1.13
2023-05-19T20:22:15.125Z,1.27
2023-05-19T20:24:41.851Z,1.70
2023-05-19T20:27:09.357Z,1.58
2023-05-19T20:29:36.678Z,1.80
2023-05-19T20:32:03.217Z,2.27
2023-05-19T20:34:29.916Z,1.73
2023-05-19T20:36:56.403Z,1.60
2023-05-19T20:39:22.945Z,2.40
2023-05-19T20:41:49.342Z,1.52
2023-05-19T20:44:16.055Z,1.53
2023-05-19T20:46:42.774Z,2.22
2023-05-19T20:49:09.175Z,2.33
2023-05-19T20:51:35.818Z,1.70
2023-05-19T20:54:02.249Z,1.95
2023-05-19T20:56:28.662Z,2.03
2023-05-19T20:58:55.065Z,1.77
2023-05-19T21:01:21.702Z,1.65
2023-05-19T21:03:48.185Z,2.35
2023-05-19T21:06:14.569Z,2.22
2023-05-19T21:08:41.073Z,1.80
2023-05-19T21:11:07.577Z,2.10
2023-05-19T21:13:33.988Z,2.58
2023-05-19T21:16:00.519Z,1.60
2023-05-19T21:18:27.023Z,4.03
2023-05-19T21:20:53.683Z,1.70
2023-05-19T21:23:20.270Z,2.00
2023-05-19T21:25:46.745Z,1.45
2023-05-19T21:28:13.151Z,1.88
2023-05-19T21:30:39.531Z,1.52
2023-05-19T21:33:05.992Z,1.90
2023-05-19T21:35:32.487Z,2.40
2023-05-19T21:38:02.112Z,2.72
2023-05-19T21:40:35.604Z,2.45
2023-05-19T21:43:02.352Z,2.40
2023-05-19T21:45:29.088Z,1.73
2023-05-19T21:47:55.884Z,2.17
2023-05-19T21:50:22.324Z,2.40
2023-05-19T21:52:48.790Z,2.03
2023-05-19T21:55:15.614Z,2.00
2023-05-19T21:57:42.340Z,2.00
2023-05-19T22:00:12.865Z,1.77
2023-05-19T22:02:40.720Z,2.30
2023-05-19T22:05:07.590Z,1.80
2023-05-19T22:07:34.053Z,2.00
2023-05-19T22:10:00.914Z,1.77
2023-05-19T22:12:27.395Z,1.77
2023-05-19T22:14:53.813Z,2.03
2023-05-19T22:17:20.402Z,1.80
2023-05-19T22:19:47.050Z,1.67
2023-05-19T22:22:14.599Z,1.40
2023-05-19T22:24:41.322Z,1.67
2023-05-19T22:27:08.418Z,1.98
2023-05-19T22:29:35.380Z,1.83
2023-05-19T22:32:01.789Z,2.25
2023-05-19T22:34:28.291Z,1.57
2023-05-19T22:36:54.744Z,1.90
2023-05-19T22:39:21.258Z,2.50
2023-05-19T22:41:47.775Z,1.92
2023-05-19T22:44:16.163Z,1.92
2023-05-19T22:46:44.634Z,2.23
2023-05-19T22:49:11.061Z,2.25
2023-05-19T22:51:37.806Z,1.80
2023-05-19T22:54:04.196Z,1.60
2023-05-19T22:56:30.597Z,2.58
2023-05-19T22:58:57.102Z,2.13
2023-05-19T23:01:23.714Z,1.95
2023-05-19T23:03:50.192Z,2.45
2023-05-19T23:06:16.729Z,2.45
2023-05-19T23:08:46.726Z,1.95
2023-05-19T23:11:13.268Z,2.07
2023-05-19T23:13:39.676Z,1.95
2023-05-19T23:16:07.523Z,1.67
2023-05-19T23:18:34.211Z,2.28
2023-05-19T23:21:00.676Z,2.97
2023-05-19T23:23:28.694Z,2.07
2023-05-19T23:25:55.794Z,2.47
2023-05-19T23:28:22.194Z,2.10
2023-05-19T23:30:48.638Z,2.65
2023-05-19T23:33:15.055Z,1.92
2023-05-19T23:35:41.801Z,2.33
2023-05-19T23:38:08.201Z,2.45
2023-05-19T23:40:34.613Z,2.05
2023-05-19T23:43:01.115Z,2.05
2023-05-19T23:45:27.639Z,1.98
2023-05-19T23:47:54.162Z,2.23
2023-05-19T23:50:20.780Z,1.92
2023-05-19T23:52:48.090Z,2.15
2023-05-19T23:55:15.061Z,1.60
2023-05-19T23:57:42.122Z,2.22
